createdAt,value
2018-08-28T07:08:14.822Z,61.49
2018-08-28T07:09:14.857Z,62.27
2018-08-28T07:10:14.961Z,62.75
2018-08-28T07:11:14.951Z,61.79
2018-08-28T07:12:15.023Z,62.30
2018-08-28T07:13:15.046Z,61.14
2018-08-28T07:14:15.128Z,60.07
2018-08-28T07:15:15.159Z,60.46
2018-08-28T07:16:15.197Z,59.97
2018-08-28T07:17:15.248Z,60.75
2018-08-28T07:18:15.307Z,59.97
2018-08-28T07:19:15.380Z,60.07
2018-08-28T07:20:15.404Z,59.59
2018-08-28T07:21:15.460Z,59.66
2018-08-28T07:22:15.508Z,61.24
2018-08-28T07:23:15.560Z,61.66
2018-08-28T07:24:15.642Z,61.33
2018-08-28T07:25:15.660Z,62.11
2018-08-28T07:26:15.715Z,62.01
2018-08-28T07:27:15.772Z,61.46
2018-08-28T07:28:15.835Z,61.27
2018-08-28T07:29:15.892Z,61.30
2018-08-28T07:30:15.924Z,60.62
2018-08-28T07:31:16.050Z,59.94
2018-08-28T07:32:16.040Z,58.59
2018-08-28T07:33:16.080Z,58.74
2018-08-28T07:34:16.158Z,57.00
2018-08-28T07:35:16.200Z,56.45
2018-08-28T07:36:16.239Z,56.13
2018-08-28T07:37:16.325Z,55.96
2018-08-28T07:38:16.354Z,55.67
2018-08-28T07:39:16.423Z,55.87
2018-08-28T07:40:16.453Z,56.74
2018-08-28T07:41:16.505Z,56.05
2018-08-28T07:42:16.566Z,56.05
2018-08-28T07:43:16.612Z,56.05
2018-08-28T07:44:16.686Z,55.96
2018-08-28T07:45:16.717Z,55.28
2018-08-28T07:46:16.775Z,55.38
2018-08-28T07:47:16.842Z,55.50
2018-08-28T07:48:16.897Z,55.31
2018-08-28T07:49:16.938Z,55.89
2018-08-28T07:50:17.007Z,55.18
2018-08-28T07:51:17.057Z,54.44
2018-08-28T07:52:17.095Z,54.21
2018-08-28T07:53:18.866Z,55.50
2018-08-28T07:54:17.202Z,55.33
2018-08-28T07:55:17.272Z,56.50
2018-08-28T07:56:17.304Z,53.97
2018-08-28T07:57:17.380Z,54.10
2018-08-28T07:58:17.418Z,53.08
2018-08-28T07:59:17.467Z,54.16
2018-08-28T08:00:17.526Z,56.07
2018-08-28T08:01:17.644Z,57.19
2018-08-28T08:02:17.656Z,55.28
2018-08-28T08:03:17.690Z,54.11
2018-08-28T08:04:17.736Z,54.82
2018-08-28T08:05:17.788Z,54.07
2018-08-28T08:06:17.846Z,54.17
2018-08-28T08:07:17.928Z,52.81
2018-08-28T08:08:17.972Z,53.00
2018-08-28T08:09:18.005Z,52.84
2018-08-28T08:10:18.067Z,52.19
2018-08-28T08:11:18.114Z,52.01
2018-08-28T08:12:18.166Z,51.01
2018-08-28T08:13:18.252Z,53.18
2018-08-28T08:14:18.288Z,50.95
2018-08-28T08:15:18.333Z,51.67
2018-08-28T08:16:18.527Z,54.22
2018-08-28T08:17:18.439Z,52.01
2018-08-28T08:18:18.520Z,52.11
2018-08-28T08:19:18.577Z,50.04
2018-08-28T08:20:18.598Z,50.99
2018-08-28T08:21:18.656Z,53.66
2018-08-28T08:22:18.794Z,54.02
2018-08-28T08:23:18.809Z,56.11
2018-08-28T08:24:18.819Z,56.98
2018-08-28T08:25:18.892Z,53.69
2018-08-28T08:26:19.887Z,53.22
2018-08-28T08:27:18.985Z,55.78
2018-08-28T08:28:19.084Z,53.35
2018-08-28T08:29:19.093Z,53.93
2018-08-28T08:30:19.152Z,54.10
2018-08-28T08:31:19.208Z,53.13
2018-08-28T08:32:19.256Z,52.94
2018-08-28T08:33:20.205Z,53.35
2018-08-28T08:34:19.397Z,51.38
2018-08-28T08:35:19.451Z,52.84
2018-08-28T08:36:19.480Z,52.96
2018-08-28T08:37:19.548Z,51.72
2018-08-28T08:38:19.591Z,50.75
2018-08-28T08:39:19.668Z,48.97
2018-08-28T08:40:19.709Z,50.70
2018-08-28T08:41:19.760Z,52.42
2018-08-28T08:42:19.808Z,52.45
2018-08-28T08:43:19.866Z,51.65
2018-08-28T08:44:19.947Z,51.91
2018-08-28T08:45:19.975Z,51.67
2018-08-28T08:46:20.039Z,53.02
2018-08-28T08:47:20.090Z,53.34
2018-08-28T08:48:20.156Z,52.18
2018-08-28T08:49:20.216Z,52.34
2018-08-28T08:50:20.272Z,52.86
2018-08-28T08:51:20.317Z,51.37
2018-08-28T08:52:20.360Z,51.86
2018-08-28T08:53:20.436Z,53.00
2018-08-28T08:54:20.499Z,54.11
2018-08-28T08:55:20.530Z,55.69
2018-08-28T08:56:20.589Z,53.81
2018-08-28T08:57:20.642Z,54.42
2018-08-28T08:58:20.700Z,51.82
2018-08-28T08:59:20.784Z,47.81
2018-08-28T09:00:20.802Z,48.10
2018-08-28T09:01:20.861Z,49.07
2018-08-28T09:02:20.914Z,48.47
2018-08-28T09:03:20.968Z,49.05
2018-08-28T09:04:21.071Z,48.95
2018-08-28T09:05:21.078Z,48.66
2018-08-28T09:06:21.134Z,47.88
2018-08-28T09:07:21.189Z,46.98
2018-08-28T09:08:21.250Z,48.42
2018-08-28T09:09:21.320Z,49.39
2018-08-28T09:10:21.359Z,48.35
2018-08-28T09:11:21.417Z,48.95
2018-08-28T09:12:21.489Z,47.69
2018-08-28T09:13:21.567Z,46.98
2018-08-28T09:14:21.601Z,48.57
2018-08-28T09:15:21.633Z,49.27
2018-08-28T09:16:21.715Z,49.56
2018-08-28T09:17:21.749Z,47.30
2018-08-28T09:18:21.810Z,47.91
2018-08-28T09:19:21.887Z,47.81
2018-08-28T09:20:21.915Z,47.15
2018-08-28T09:21:21.992Z,48.73
2018-08-28T09:22:22.033Z,48.75
2018-08-28T09:23:22.082Z,47.30
2018-08-28T09:24:22.135Z,46.42
2018-08-28T09:25:22.225Z,46.95
2018-08-28T09:26:22.273Z,49.99
2018-08-28T09:27:22.334Z,45.10
2018-08-28T09:28:22.371Z,46.23
2018-08-28T09:29:23.409Z,45.98
2018-08-28T09:30:22.481Z,47.81
2018-08-28T09:31:22.577Z,48.30
2018-08-28T09:32:22.712Z,50.53
2018-08-28T09:33:22.649Z,50.56
2018-08-28T09:34:22.715Z,51.07
2018-08-28T09:35:22.760Z,49.32
2018-08-28T09:36:22.860Z,50.29
2018-08-28T09:37:22.883Z,49.34
2018-08-28T09:38:22.944Z,48.78
2018-08-28T09:39:23.004Z,48.71
2018-08-28T09:40:23.052Z,48.90
2018-08-28T09:41:23.942Z,47.96
2018-08-28T09:42:23.156Z,50.14
2018-08-28T09:43:23.241Z,50.31
2018-08-28T09:44:23.276Z,50.51
2018-08-28T09:45:23.330Z,50.34
2018-08-28T09:46:23.514Z,49.49
2018-08-28T09:47:23.462Z,47.88
2018-08-28T09:48:23.538Z,50.12
2018-08-28T09:49:23.559Z,49.73
2018-08-28T09:50:23.704Z,50.89
2018-08-28T09:51:23.670Z,53.77
2018-08-28T09:52:23.746Z,48.39
2018-08-28T09:53:23.887Z,48.49
2018-08-28T09:54:23.839Z,48.20
2018-08-28T09:55:23.895Z,47.61
2018-08-28T09:56:23.972Z,50.41
2018-08-28T09:57:24.044Z,52.64
2018-08-28T09:58:24.067Z,51.79
2018-08-28T09:59:24.121Z,50.53
2018-08-28T10:00:24.184Z,48.68
2018-08-28T10:01:24.239Z,50.60
2018-08-28T10:02:24.319Z,50.21
2018-08-28T10:03:24.358Z,50.96
2018-08-28T10:04:24.408Z,50.72
2018-08-28T10:05:24.461Z,51.79
2018-08-28T10:06:24.520Z,51.09
2018-08-28T10:07:24.599Z,51.81
2018-08-28T10:08:24.658Z,52.25
2018-08-28T10:09:24.692Z,54.61
2018-08-28T10:10:24.748Z,48.88
2018-08-28T10:11:24.805Z,49.51
2018-08-28T10:12:24.916Z,50.87
2018-08-28T10:13:24.939Z,51.65
2018-08-28T10:14:24.979Z,51.84
2018-08-28T10:15:25.039Z,51.09
2018-08-28T10:16:25.087Z,52.96
2018-08-28T10:17:25.223Z,50.41
2018-08-28T10:18:25.244Z,51.09
2018-08-28T10:19:25.327Z,50.77
2018-08-28T10:20:25.322Z,52.56
2018-08-28T10:21:25.391Z,51.98
2018-08-28T10:22:25.425Z,51.98
2018-08-28T10:23:25.487Z,53.66
2018-08-28T10:24:25.677Z,53.17
2018-08-28T10:25:25.590Z,52.81
2018-08-28T10:26:25.657Z,51.72
2018-08-28T10:27:25.707Z,53.00
2018-08-28T10:28:25.767Z,52.33
2018-08-28T10:29:25.842Z,55.33
2018-08-28T10:30:26.003Z,54.66
2018-08-28T10:31:26.024Z,54.07
2018-08-28T10:32:26.002Z,53.66
2018-08-28T10:33:26.041Z,55.41
2018-08-28T10:34:26.141Z,56.93
2018-08-28T10:35:26.169Z,59.12
2018-08-28T10:36:26.239Z,55.36
2018-08-28T10:37:26.268Z,54.13
2018-08-28T10:38:26.419Z,53.74
2018-08-28T10:39:26.388Z,53.83
2018-08-28T10:40:26.438Z,54.39
2018-08-28T10:41:26.539Z,56.07
2018-08-28T10:42:26.566Z,54.68
2018-08-28T10:43:26.608Z,54.88
2018-08-28T10:44:26.659Z,53.10
2018-08-28T10:45:26.727Z,55.33
2018-08-28T10:46:26.851Z,54.58
2018-08-28T10:47:26.835Z,52.91
2018-08-28T10:48:26.892Z,54.17
2018-08-28T10:49:26.948Z,54.78
2018-08-28T10:50:27.061Z,55.61
2018-08-28T10:51:27.057Z,54.88
2018-08-28T10:52:27.111Z,55.46
2018-08-28T10:53:27.174Z,54.32
2018-08-28T10:54:27.225Z,55.41
2018-08-28T10:55:27.299Z,54.57
2018-08-28T10:56:27.335Z,53.91
2018-08-28T10:57:27.497Z,53.30
2018-08-28T10:58:27.489Z,53.30
2018-08-28T10:59:27.505Z,54.01
2018-08-28T11:00:27.572Z,51.97
2018-08-28T11:01:27.620Z,53.99
2018-08-28T11:02:27.701Z,54.25
2018-08-28T11:03:27.741Z,54.61
2018-08-28T11:04:27.840Z,55.68
2018-08-28T11:05:27.859Z,55.29
2018-08-28T11:06:27.914Z,55.98
2018-08-28T11:07:27.985Z,56.04
2018-08-28T11:08:28.028Z,57.08
2018-08-28T11:09:28.085Z,59.15
2018-08-28T11:10:28.150Z,60.25
2018-08-28T11:11:28.191Z,58.00
2018-08-28T11:12:28.270Z,55.40
2018-08-28T11:13:28.308Z,53.74
2018-08-28T11:14:28.372Z,56.98
2018-08-28T11:15:28.425Z,59.58
2018-08-28T11:16:28.510Z,60.52
2018-08-28T11:17:28.557Z,61.81
2018-08-28T11:18:28.599Z,59.67
2018-08-28T11:19:28.668Z,60.35
2018-08-28T11:20:28.714Z,61.52
2018-08-28T11:21:28.785Z,60.64
2018-08-28T11:22:28.819Z,60.35
2018-08-28T11:23:28.917Z,59.70
2018-08-28T11:24:28.933Z,59.67
2018-08-28T11:25:28.989Z,61.58
2018-08-28T11:26:29.068Z,62.98
2018-08-28T11:27:29.101Z,61.68
2018-08-28T11:28:29.164Z,63.82
2018-08-28T11:29:29.218Z,64.69
2018-08-28T11:30:29.276Z,64.14
2018-08-28T11:31:29.391Z,62.85
2018-08-28T11:32:29.389Z,63.10
2018-08-28T11:33:29.447Z,62.91
2018-08-28T11:34:29.544Z,63.01
2018-08-28T11:35:29.563Z,62.55
2018-08-28T11:36:29.615Z,63.33
2018-08-28T11:37:29.669Z,64.11
2018-08-28T11:38:29.757Z,64.07
2018-08-28T11:39:29.816Z,63.13
2018-08-28T11:40:29.849Z,60.83
2018-08-28T11:41:29.897Z,59.11
2018-08-28T11:42:29.970Z,59.92
2018-08-28T11:43:30.025Z,58.56
2018-08-28T11:44:30.062Z,57.87
2018-08-28T11:45:30.130Z,58.07
2018-08-28T11:46:30.227Z,59.01
2018-08-28T11:47:30.257Z,59.41
2018-08-28T11:48:30.297Z,59.11
2018-08-28T11:49:30.359Z,59.23
2018-08-28T11:50:30.410Z,58.17
2018-08-28T11:51:30.482Z,57.61
2018-08-28T11:52:30.602Z,56.67
2018-08-28T11:53:30.578Z,55.82
2018-08-28T11:54:30.640Z,56.43
2018-08-28T11:55:30.707Z,55.68
2018-08-28T11:56:30.782Z,54.24
2018-08-28T11:57:30.845Z,53.78
2018-08-28T11:58:30.889Z,56.15
2018-08-28T11:59:30.932Z,53.25
2018-08-28T12:00:30.992Z,52.37
2018-08-28T12:01:31.043Z,53.64
2018-08-28T12:02:31.143Z,51.39
2018-08-28T12:03:31.168Z,50.61
2018-08-28T12:04:31.221Z,52.37
2018-08-28T12:05:31.324Z,54.15
2018-08-28T12:06:31.344Z,53.47
2018-08-28T12:07:31.512Z,49.75
2018-08-28T12:08:31.465Z,50.73
2018-08-28T12:09:31.519Z,51.44
2018-08-28T12:10:31.591Z,50.46
2018-08-28T12:11:31.639Z,51.32
2018-08-28T12:12:31.733Z,51.68
2018-08-28T12:13:31.765Z,51.82
2018-08-28T12:14:31.831Z,53.07
2018-08-28T12:15:31.879Z,54.44
2018-08-28T12:16:31.941Z,54.24
2018-08-28T12:17:32.027Z,53.39
2018-08-28T12:18:32.220Z,52.22
2018-08-28T12:19:32.161Z,53.49
2018-08-28T12:20:32.211Z,54.70
2018-08-28T12:21:32.245Z,56.04
2018-08-28T12:22:32.328Z,55.94
2018-08-28T12:23:32.375Z,56.21
2018-08-28T12:24:32.447Z,56.82
2018-08-28T12:25:32.488Z,55.85
2018-08-28T12:26:32.568Z,57.31
2018-08-28T12:27:32.623Z,57.67
2018-08-28T12:28:32.694Z,58.54
2018-08-28T12:29:32.767Z,59.03
2018-08-28T12:30:32.905Z,59.13
2018-08-28T12:31:32.867Z,59.62
2018-08-28T12:32:32.919Z,61.01
2018-08-28T12:33:32.995Z,59.97
2018-08-28T12:34:33.034Z,59.44
2018-08-28T12:35:33.101Z,58.11
2018-08-28T12:36:33.177Z,57.35
2018-08-28T12:37:33.220Z,55.79
2018-08-28T12:38:33.328Z,54.81
2018-08-28T12:39:33.373Z,54.69
2018-08-28T12:40:33.400Z,54.75
2018-08-28T12:41:33.465Z,54.95
2018-08-28T12:42:33.613Z,55.86
2018-08-28T12:43:33.579Z,55.96
2018-08-28T12:44:33.682Z,54.52
2018-08-28T12:45:33.705Z,55.98
2018-08-28T12:46:33.774Z,55.81
2018-08-28T12:47:33.830Z,57.57
2018-08-28T12:48:33.892Z,55.71
2018-08-28T12:49:34.017Z,56.01
2018-08-28T12:50:34.034Z,52.76
2018-08-28T12:51:34.075Z,52.37
2018-08-28T12:52:34.152Z,52.95
2018-08-28T12:53:34.205Z,53.61
2018-08-28T12:54:34.270Z,54.95
2018-08-28T12:55:34.342Z,55.63
2018-08-28T12:56:34.393Z,55.34
2018-08-28T12:57:34.457Z,54.93
2018-08-28T12:58:34.515Z,55.94
2018-08-28T12:59:34.572Z,58.51
2018-08-28T13:00:34.717Z,59.05
2018-08-28T13:01:34.698Z,60.86
2018-08-28T13:02:35.011Z,61.18
2018-08-28T13:03:34.820Z,60.72
2018-08-28T13:04:34.883Z,60.72
2018-08-28T13:05:34.955Z,60.20
2018-08-28T13:06:35.064Z,60.42
2018-08-28T13:07:35.170Z,57.43
2018-08-28T13:08:35.128Z,55.90
2018-08-28T13:09:35.192Z,55.47
2018-08-28T13:10:35.262Z,55.10
2018-08-28T13:11:35.330Z,54.81
2018-08-28T13:12:35.415Z,54.95
2018-08-28T13:13:35.441Z,55.77
2018-08-28T13:14:35.536Z,57.24
2018-08-28T13:15:35.557Z,56.38
2018-08-28T13:16:35.632Z,54.44
2018-08-28T13:17:37.532Z,54.83
2018-08-28T13:18:36.371Z,53.58
2018-08-28T13:19:35.810Z,54.27
2018-08-28T13:20:35.868Z,54.56
2018-08-28T13:21:35.931Z,55.63
2018-08-28T13:22:35.991Z,55.05
2018-08-28T13:23:36.080Z,55.80
2018-08-28T13:24:36.118Z,56.85
2018-08-28T13:25:36.279Z,57.82
2018-08-28T13:26:36.247Z,58.92
2018-08-28T13:27:36.308Z,55.61
2018-08-28T13:28:36.400Z,55.61
2018-08-28T13:29:36.430Z,54.56
2018-08-28T13:30:36.596Z,54.66
2018-08-28T13:31:36.562Z,54.95
2018-08-28T13:32:36.620Z,53.68
2018-08-28T13:33:36.714Z,54.27
2018-08-28T13:34:36.748Z,54.46
2018-08-28T13:35:36.807Z,53.52
2018-08-28T13:36:36.867Z,53.22
2018-08-28T13:37:36.950Z,53.32
2018-08-28T13:38:37.015Z,55.27
2018-08-28T13:39:37.071Z,53.15
2018-08-28T13:40:37.250Z,53.34
2018-08-28T13:41:37.196Z,52.44
2018-08-28T13:42:37.350Z,54.39
2018-08-28T13:43:37.311Z,52.54
2018-08-28T13:44:37.400Z,54.56
2018-08-28T13:45:37.445Z,54.53
2018-08-28T13:46:37.499Z,54.17
2018-08-28T13:47:37.557Z,55.15
2018-08-28T13:48:37.627Z,55.83
2018-08-28T13:49:37.726Z,54.75
2018-08-28T13:50:37.774Z,54.75
2018-08-28T13:51:37.823Z,55.63
2018-08-28T13:52:37.877Z,56.22
2018-08-28T13:53:38.034Z,56.15
2018-08-28T13:54:38.005Z,55.66
2018-08-28T13:55:38.093Z,55.76
2018-08-28T13:56:38.162Z,56.76
2018-08-28T13:57:38.193Z,55.57
2018-08-28T13:58:38.273Z,56.64
2018-08-28T13:59:38.324Z,55.76
2018-08-28T14:00:38.409Z,55.57
2018-08-28T14:01:38.455Z,55.66
2018-08-28T14:02:38.516Z,55.18
2018-08-28T14:03:38.575Z,54.22
2018-08-28T14:04:38.641Z,54.13
2018-08-28T14:05:38.737Z,53.81
2018-08-28T14:06:38.802Z,54.00
2018-08-28T14:07:38.837Z,53.91
2018-08-28T14:08:38.901Z,54.46
2018-08-28T14:09:38.967Z,55.47
2018-08-28T14:10:39.038Z,55.76
2018-08-28T14:11:39.159Z,55.66
2018-08-28T14:12:39.147Z,55.69
2018-08-28T14:13:39.263Z,56.20
2018-08-28T14:14:39.296Z,55.10
2018-08-28T14:15:39.338Z,56.37
2018-08-28T14:16:39.424Z,55.40
2018-08-28T14:17:39.492Z,54.64
2018-08-28T14:18:39.530Z,56.45
2018-08-28T14:19:39.592Z,55.76
2018-08-28T14:20:39.684Z,56.97
2018-08-28T14:21:39.731Z,59.64
2018-08-28T14:22:39.885Z,60.78
2018-08-28T14:23:39.882Z,61.18
2018-08-28T14:24:39.914Z,60.69
2018-08-28T14:25:39.978Z,60.46
2018-08-28T14:26:40.049Z,60.59
2018-08-28T14:27:40.106Z,61.96
2018-08-28T14:28:40.228Z,62.66
2018-08-28T14:29:40.240Z,61.69
2018-08-28T14:30:40.314Z,62.25
2018-08-28T14:31:40.360Z,62.02
2018-08-28T14:32:40.432Z,61.66
2018-08-28T14:33:40.531Z,61.30
2018-08-28T14:34:40.555Z,60.68
2018-08-28T14:35:40.639Z,60.97
2018-08-28T14:36:40.677Z,61.76
2018-08-28T14:37:40.742Z,60.88
2018-08-28T14:38:40.828Z,60.52
2018-08-28T14:39:40.885Z,61.30
2018-08-28T14:40:40.939Z,63.28
2018-08-28T14:41:40.996Z,64.23
2018-08-28T14:42:41.093Z,65.36
2018-08-28T14:43:41.142Z,66.24
2018-08-28T14:44:41.202Z,67.02
2018-08-28T14:45:41.257Z,68.61
2018-08-28T14:46:41.314Z,70.23
2018-08-28T14:47:41.382Z,72.17
2018-08-28T14:48:41.467Z,71.88
2018-08-28T14:49:41.513Z,70.88
2018-08-28T14:50:41.596Z,69.94
2018-08-28T14:51:41.655Z,69.75
2018-08-28T14:52:41.730Z,69.07
2018-08-28T14:53:41.756Z,68.71
2018-08-28T14:54:41.826Z,67.02
2018-08-28T14:55:41.877Z,64.97
2018-08-28T14:56:41.992Z,66.89
2018-08-28T14:57:42.016Z,65.20
2018-08-28T14:58:42.072Z,62.60
2018-08-28T14:59:42.142Z,61.62
2018-08-28T15:00:42.202Z,59.79
2018-08-28T15:01:42.280Z,56.79
2018-08-28T15:02:42.337Z,55.52
2018-08-28T15:03:42.399Z,55.55
2018-08-28T15:04:42.503Z,56.46
2018-08-28T15:05:42.512Z,55.28
2018-08-28T15:06:42.605Z,52.56
2018-08-28T15:07:42.640Z,51.88
2018-08-28T15:08:42.705Z,51.88
2018-08-28T15:09:42.778Z,53.08
2018-08-28T15:10:42.833Z,51.39
2018-08-28T15:11:42.926Z,52.08
2018-08-28T15:12:42.979Z,52.37
2018-08-28T15:13:43.031Z,51.00
2018-08-28T15:14:43.095Z,52.30
2018-08-28T15:15:43.172Z,48.30
2018-08-28T15:16:43.293Z,48.70
2018-08-28T15:17:43.311Z,47.72
2018-08-28T15:18:43.354Z,48.30
2018-08-28T15:19:43.457Z,48.58
2018-08-28T15:20:43.491Z,49.07
2018-08-28T15:21:43.550Z,50.17
2018-08-28T15:22:43.622Z,49.38
2018-08-28T15:23:43.679Z,49.38
2018-08-28T15:24:43.774Z,49.14
2018-08-28T15:25:43.857Z,49.04
2018-08-28T15:26:43.917Z,50.32
2018-08-28T15:27:43.954Z,50.22
2018-08-28T15:28:44.018Z,48.85
2018-08-28T15:29:44.110Z,47.79
2018-08-28T15:30:44.141Z,49.16
2018-08-28T15:31:44.221Z,48.68
2018-08-28T15:32:44.368Z,49.02
2018-08-28T15:33:44.354Z,49.04
2018-08-28T15:34:44.405Z,50.61
2018-08-28T15:35:44.487Z,49.14
2018-08-28T15:36:44.536Z,51.76
2018-08-28T15:37:44.616Z,51.76
2018-08-28T15:38:44.705Z,48.94
2018-08-28T15:39:44.733Z,50.15
2018-08-28T15:40:44.834Z,50.15
2018-08-28T15:41:44.896Z,49.43
2018-08-28T15:42:44.929Z,49.11
2018-08-28T15:43:45.026Z,48.43
2018-08-28T15:44:45.070Z,49.48
2018-08-28T15:45:45.126Z,49.68
2018-08-28T15:46:45.219Z,50.49
2018-08-28T15:47:45.256Z,50.20
2018-08-28T15:48:45.326Z,47.16
2018-08-28T15:49:45.419Z,47.55
2018-08-28T15:50:45.457Z,47.77
2018-08-28T15:51:45.559Z,48.46
2018-08-28T15:52:45.602Z,48.26
2018-08-28T15:53:45.657Z,48.14
2018-08-28T15:54:45.742Z,49.97
2018-08-28T15:55:45.785Z,49.16
2018-08-28T15:56:45.865Z,48.94
2018-08-28T15:57:45.915Z,48.70
2018-08-28T15:58:45.990Z,49.97
2018-08-28T15:59:46.058Z,50.68
2018-08-28T16:00:46.133Z,48.41
2018-08-28T16:01:46.183Z,47.36
2018-08-28T16:02:46.252Z,48.33
2018-08-28T16:03:46.312Z,47.65
2018-08-28T16:04:46.451Z,50.34
2018-08-28T16:05:46.459Z,48.44
2018-08-28T16:06:46.499Z,49.44
2018-08-28T16:07:46.583Z,52.04
2018-08-28T16:08:46.634Z,52.60
2018-08-28T16:09:46.712Z,51.99
2018-08-28T16:10:46.763Z,53.33
2018-08-28T16:11:46.843Z,53.23
2018-08-28T16:12:46.913Z,55.44
2018-08-28T16:13:46.942Z,55.54
2018-08-28T16:14:47.009Z,54.57
2018-08-28T16:15:47.074Z,54.44
2018-08-28T16:16:47.472Z,56.00
2018-08-28T16:17:47.223Z,56.39
2018-08-28T16:18:47.262Z,55.32
2018-08-28T16:19:47.306Z,56.87
2018-08-28T16:20:47.376Z,56.29
2018-08-28T16:21:47.430Z,56.16
2018-08-28T16:22:47.514Z,56.07
2018-08-28T16:23:47.569Z,58.50
2018-08-28T16:24:47.617Z,57.43
2018-08-28T16:25:47.672Z,59.38
2018-08-28T16:26:47.722Z,59.25
2018-08-28T16:27:47.854Z,58.95
2018-08-28T16:28:47.853Z,59.54
2018-08-28T16:29:47.904Z,60.90
2018-08-28T16:30:47.956Z,58.95
2018-08-28T16:31:48.048Z,58.86
2018-08-28T16:32:48.063Z,60.71
2018-08-28T16:33:48.178Z,60.22
2018-08-28T16:34:48.189Z,59.25
2018-08-28T16:35:48.283Z,61.09
2018-08-28T16:36:48.297Z,62.55
2018-08-28T16:37:48.351Z,62.26
2018-08-28T16:38:48.471Z,64.01
2018-08-28T16:39:48.463Z,64.75
2018-08-28T16:40:48.579Z,62.71
2018-08-28T16:41:48.586Z,61.65
2018-08-28T16:42:48.699Z,65.11
2018-08-28T16:43:48.697Z,62.49
2018-08-28T16:44:48.744Z,63.85
2018-08-28T16:45:48.825Z,64.72
2018-08-28T16:46:48.885Z,65.11
2018-08-28T16:47:48.917Z,62.98
2018-08-28T16:48:48.968Z,63.56
2018-08-28T16:49:49.019Z,65.30
2018-08-28T16:50:49.144Z,65.50
2018-08-28T16:51:49.143Z,65.40
2018-08-28T16:52:49.190Z,65.08
2018-08-28T16:53:49.243Z,64.50
2018-08-28T16:54:49.299Z,64.11
2018-08-28T16:55:49.487Z,65.66
2018-08-28T16:56:49.409Z,65.37
2018-08-28T16:57:49.525Z,65.85
2018-08-28T16:58:49.518Z,67.11
2018-08-28T16:59:49.572Z,66.44
2018-08-28T17:00:49.646Z,66.44
2018-08-28T17:01:49.765Z,65.92
2018-08-28T17:02:49.746Z,64.75
2018-08-28T17:03:49.825Z,66.69
2018-08-28T17:04:49.867Z,66.60
2018-08-28T17:05:49.928Z,65.82
2018-08-28T17:06:49.968Z,68.05
2018-08-28T17:07:50.043Z,68.34
2018-08-28T17:08:50.073Z,66.11
2018-08-28T17:09:50.137Z,67.05
2018-08-28T17:10:50.177Z,67.37
2018-08-28T17:11:50.231Z,68.02
2018-08-28T17:12:50.308Z,68.79
2018-08-28T17:13:50.341Z,69.37
2018-08-28T17:14:50.413Z,69.37
2018-08-28T17:15:50.461Z,70.63
2018-08-28T17:16:50.576Z,69.57
2018-08-28T17:17:50.582Z,69.18
2018-08-28T17:18:50.625Z,69.18
2018-08-28T17:19:50.674Z,67.82
2018-08-28T17:20:50.725Z,69.34
2018-08-28T17:21:50.799Z,68.27
2018-08-28T17:22:50.853Z,68.27
2018-08-28T17:23:50.918Z,67.88
2018-08-28T17:24:50.950Z,69.53
2018-08-28T17:25:51.005Z,68.76
2018-08-28T17:26:51.674Z,69.34
2018-08-28T17:27:51.142Z,69.53
2018-08-28T17:28:51.175Z,69.63
2018-08-28T17:29:51.212Z,69.43
2018-08-28T17:30:51.293Z,70.01
2018-08-28T17:31:51.328Z,69.79
2018-08-28T17:32:51.398Z,69.11
2018-08-28T17:33:51.428Z,70.47
2018-08-28T17:34:51.497Z,71.04
2018-08-28T17:35:52.682Z,71.04
2018-08-28T17:36:51.610Z,71.82
2018-08-28T17:37:51.674Z,72.02
2018-08-28T17:38:52.185Z,71.92
2018-08-28T17:39:51.753Z,71.78
2018-08-28T17:40:51.826Z,72.66
2018-08-28T17:41:52.720Z,71.24
2018-08-28T17:42:51.916Z,72.08
2018-08-28T17:43:51.971Z,71.59
2018-08-28T17:44:52.055Z,71.50
2018-08-28T17:45:52.088Z,71.69
2018-08-28T17:46:52.684Z,72.27
2018-08-28T17:47:52.190Z,72.17
2018-08-28T17:48:52.298Z,72.85
2018-08-28T17:49:52.358Z,72.75
2018-08-28T17:50:52.353Z,73.33
2018-08-28T17:51:52.424Z,73.01
2018-08-28T17:52:52.452Z,73.39
2018-08-28T17:53:52.512Z,73.39
2018-08-28T17:54:52.581Z,74.27
2018-08-28T17:55:52.624Z,74.27
2018-08-28T17:56:52.747Z,72.81
2018-08-28T17:57:52.729Z,72.81
2018-08-28T17:58:52.774Z,73.39
2018-08-28T17:59:53.500Z,74.55
2018-08-28T18:00:52.907Z,74.65
2018-08-28T18:01:52.951Z,74.90
2018-08-28T18:02:53.026Z,75.29
2018-08-28T18:03:53.062Z,75.97
2018-08-28T18:04:53.102Z,75.39
2018-08-28T18:05:53.176Z,75.39
2018-08-28T18:06:53.995Z,75.29
2018-08-28T18:07:53.264Z,77.13
2018-08-28T18:08:53.361Z,77.22
2018-08-28T18:09:53.375Z,77.51
2018-08-28T18:10:53.421Z,77.61
2018-08-28T18:11:53.513Z,77.28
2018-08-28T18:12:53.542Z,77.61
2018-08-28T18:13:53.577Z,76.90
2018-08-28T18:14:53.637Z,78.44
2018-08-28T18:15:53.728Z,78.92
2018-08-28T18:16:53.768Z,79.02
2018-08-28T18:17:54.192Z,78.83
2018-08-28T18:18:53.845Z,79.89
2018-08-28T18:19:53.892Z,79.70
2018-08-28T18:20:53.944Z,79.12
2018-08-28T18:21:54.037Z,78.92
2018-08-28T18:22:54.066Z,80.18
2018-08-28T18:23:54.119Z,79.50
2018-08-28T18:24:54.154Z,80.47
2018-08-28T18:25:54.211Z,80.28
2018-08-28T18:26:55.065Z,80.18
2018-08-28T18:27:54.332Z,80.91
2018-08-28T18:28:54.446Z,80.05
2018-08-28T18:29:54.433Z,81.01
2018-08-28T18:30:54.481Z,80.72
2018-08-28T18:31:54.526Z,80.72
2018-08-28T18:32:54.619Z,81.11
2018-08-28T18:33:54.676Z,81.30
2018-08-28T18:34:54.685Z,81.30
2018-08-28T18:35:54.789Z,82.84
2018-08-28T18:36:54.810Z,82.46
2018-08-28T18:37:54.854Z,82.17
2018-08-28T18:38:54.932Z,82.84
2018-08-28T18:39:54.957Z,82.23
2018-08-28T18:40:55.069Z,82.90
2018-08-28T18:41:55.061Z,82.61
2018-08-28T18:42:55.123Z,82.90
2018-08-28T18:43:55.185Z,83.09
2018-08-28T18:44:55.224Z,82.90
2018-08-28T18:45:55.266Z,83.96
2018-08-28T18:46:55.369Z,83.58
2018-08-28T18:47:55.386Z,83.58
2018-08-28T18:48:55.455Z,82.51
2018-08-28T18:49:56.202Z,82.57
2018-08-28T18:50:55.542Z,83.53
2018-08-28T18:51:55.585Z,82.86
2018-08-28T18:52:55.639Z,83.53
2018-08-28T18:53:55.721Z,84.50
2018-08-28T18:54:55.737Z,85.52
2018-08-28T18:55:55.832Z,83.88
2018-08-28T18:56:55.850Z,84.94
2018-08-28T18:57:56.705Z,84.07
2018-08-28T18:58:55.976Z,83.59
2018-08-28T18:59:56.746Z,85.71
2018-08-28T19:00:56.705Z,84.46
2018-08-28T19:01:56.102Z,84.94
2018-08-28T19:02:56.333Z,84.84
2018-08-28T19:03:56.236Z,85.03
2018-08-28T19:04:56.748Z,86.00
2018-08-28T19:05:56.327Z,85.42
2018-08-28T19:06:56.401Z,84.90
2018-08-28T19:07:56.419Z,86.05
2018-08-28T19:08:56.539Z,85.77
2018-08-28T19:09:56.644Z,86.15
2018-08-28T19:10:56.586Z,85.67
2018-08-28T19:11:56.651Z,86.15
2018-08-28T19:12:56.681Z,86.54
2018-08-28T19:13:57.210Z,86.54
2018-08-28T19:14:56.784Z,85.86
2018-08-28T19:15:56.853Z,86.15
2018-08-28T19:16:56.899Z,87.21
2018-08-28T19:17:56.956Z,86.63
2018-08-28T19:18:57.054Z,87.12
2018-08-28T19:19:57.046Z,87.40
2018-08-28T19:20:57.124Z,87.30
2018-08-28T19:21:57.145Z,88.08
2018-08-28T19:22:57.196Z,87.98
2018-08-28T19:23:57.303Z,86.98
2018-08-28T19:24:57.304Z,87.26
2018-08-28T19:25:57.381Z,87.65
2018-08-28T19:26:57.407Z,87.84
2018-08-28T19:27:57.464Z,89.43
2018-08-28T19:28:57.633Z,87.84
2018-08-28T19:29:57.575Z,87.36
2018-08-28T19:30:57.620Z,88.71
2018-08-28T19:31:57.673Z,87.84
2018-08-28T19:32:57.723Z,87.84
2018-08-28T19:33:58.242Z,88.32
2018-08-28T19:35:01.727Z,88.23
2018-08-28T19:35:57.883Z,88.90
2018-08-28T19:36:57.931Z,88.04
2018-08-28T19:37:57.975Z,88.61
2018-08-28T19:38:58.064Z,89.39
2018-08-28T19:39:58.094Z,89.19
2018-08-28T19:40:58.140Z,89.39
2018-08-28T19:41:58.185Z,89.29
2018-08-28T19:42:58.235Z,89.58
2018-08-28T19:43:58.352Z,89.58
2018-08-28T19:44:58.347Z,90.16
2018-08-28T19:45:58.391Z,90.06
2018-08-28T19:46:58.474Z,89.67
2018-08-28T19:47:58.495Z,89.77
2018-08-28T19:48:58.546Z,91.02
2018-08-28T19:49:58.629Z,90.92
2018-08-28T19:50:58.648Z,91.02
2018-08-28T19:51:58.730Z,91.07
2018-08-28T19:52:58.761Z,91.12
2018-08-28T19:53:58.824Z,92.52
2018-08-28T19:54:58.859Z,92.27
2018-08-28T19:55:58.923Z,92.37
2018-08-28T19:56:59.002Z,92.18
2018-08-28T19:57:59.026Z,93.38
2018-08-28T19:58:59.068Z,93.62
2018-08-28T19:59:59.127Z,93.29
2018-08-28T20:00:59.190Z,93.24